sensor_id;sensor_type;location;lat;lon;timestamp;temperature;humidity
70593;DHT22;58294;42.988;20.338;2023-07-31T00:02:15;435.80;2355.20
70593;DHT22;58294;42.988;20.338;2023-07-31T00:04:41;435.70;2355.20
70593;DHT22;58294;42.988;20.338;2023-07-31T00:07:06;435.70;2355.20
70593;DHT22;58294;42.988;20.338;2023-07-31T00:09:33;435.60;2355.20
70593;DHT22;58294;42.988;20.338;2023-07-31T00:11:59;435.60;2355.20
70593;DHT22;58294;42.988;20.338;2023-07-31T00:14:25;435.50;2355.20
70593;DHT22;58294;42.988;20.338;2023-07-31T00:16:51;435.50;2355.20
70593;DHT22;58294;42.988;20.338;2023-07-31T00:19:17;435.50;2355.20
70593;DHT22;58294;42.988;20.338;2023-07-31T00:21:43;435.40;2355.20
70593;DHT22;58294;42.988;20.338;2023-07-31T00:24:09;435.50;2355.20
70593;DHT22;58294;42.988;20.338;2023-07-31T00:26:35;435.50;2355.20
70593;DHT22;58294;42.988;20.338;2023-07-31T00:29:01;435.50;2355.20
70593;DHT22;58294;42.988;20.338;2023-07-31T00:31:27;435.50;2355.20
70593;DHT22;58294;42.988;20.338;2023-07-31T00:33:52;435.60;2355.20
70593;DHT22;58294;42.988;20.338;2023-07-31T00:36:18;435.60;2355.20
70593;DHT22;58294;42.988;20.338;2023-07-31T00:38:44;435.70;2355.20
70593;DHT22;58294;42.988;20.338;2023-07-31T00:41:10;435.70;2355.20
70593;DHT22;58294;42.988;20.338;2023-07-31T00:43:36;435.70;2355.20
70593;DHT22;58294;42.988;20.338;2023-07-31T00:46:02;435.80;2355.20
70593;DHT22;58294;42.988;20.338;2023-07-31T00:48:28;435.80;2355.20
70593;DHT22;58294;42.988;20.338;2023-07-31T00:50:54;435.80;2355.20
70593;DHT22;58294;42.988;20.338;2023-07-31T00:53:20;435.90;2355.20
70593;DHT22;58294;42.988;20.338;2023-07-31T00:55:46;435.90;2355.20
70593;DHT22;58294;42.988;20.338;2023-07-31T00:58:12;435.90;2355.20
70593;DHT22;58294;42.988;20.338;2023-07-31T01:00:37;435.90;2355.20
70593;DHT22;58294;42.988;20.338;2023-07-31T01:03:03;435.90;2355.20
70593;DHT22;58294;42.988;20.338;2023-07-31T01:09:17;435.80;2355.20
70593;DHT22;58294;42.988;20.338;2023-07-31T01:11:28;435.80;2355.20
70593;DHT22;58294;42.988;20.338;2023-07-31T01:13:55;435.70;2355.20
70593;DHT22;58294;42.988;20.338;2023-07-31T01:16:22;435.70;2355.20
70593;DHT22;58294;42.988;20.338;2023-07-31T01:18:48;435.70;2355.20
70593;DHT22;58294;42.988;20.338;2023-07-31T01:21:30;435.70;2355.20
70593;DHT22;58294;42.988;20.338;2023-07-31T01:27:02;435.70;2355.20
70593;DHT22;58294;42.988;20.338;2023-07-31T01:29:47;435.70;2355.20
70593;DHT22;58294;42.988;20.338;2023-07-31T01:32:14;435.70;2355.20
70593;DHT22;58294;42.988;20.338;2023-07-31T01:34:42;435.70;2355.20
70593;DHT22;58294;42.988;20.338;2023-07-31T01:37:09;435.70;2355.20
70593;DHT22;58294;42.988;20.338;2023-07-31T01:39:34;435.70;2355.20
70593;DHT22;58294;42.988;20.338;2023-07-31T01:42:00;435.70;2355.20
70593;DHT22;58294;42.988;20.338;2023-07-31T01:44:26;435.70;2355.20
70593;DHT22;58294;42.988;20.338;2023-07-31T01:46:52;435.60;2355.20
70593;DHT22;58294;42.988;20.338;2023-07-31T01:49:18;435.60;2355.20
70593;DHT22;58294;42.988;20.338;2023-07-31T01:51:44;435.50;2355.20
70593;DHT22;58294;42.988;20.338;2023-07-31T01:54:10;435.40;2355.20
70593;DHT22;58294;42.988;20.338;2023-07-31T01:56:36;435.40;2355.20
70593;DHT22;58294;42.988;20.338;2023-07-31T01:59:02;435.40;2355.20
70593;DHT22;58294;42.988;20.338;2023-07-31T02:01:28;435.40;2355.20
70593;DHT22;58294;42.988;20.338;2023-07-31T02:03:53;435.40;2355.20
70593;DHT22;58294;42.988;20.338;2023-07-31T02:06:19;435.30;2355.20
70593;DHT22;58294;42.988;20.338;2023-07-31T02:08:45;435.30;2355.20
70593;DHT22;58294;42.988;20.338;2023-07-31T02:11:11;435.40;2355.20
70593;DHT22;58294;42.988;20.338;2023-07-31T02:13:37;435.40;2355.20
70593;DHT22;58294;42.988;20.338;2023-07-31T02:16:02;435.40;2355.20
70593;DHT22;58294;42.988;20.338;2023-07-31T02:18:28;435.40;2355.20
70593;DHT22;58294;42.988;20.338;2023-07-31T02:20:54;435.40;2355.20
70593;DHT22;58294;42.988;20.338;2023-07-31T02:23:20;435.40;2355.20
70593;DHT22;58294;42.988;20.338;2023-07-31T02:25:46;435.40;2355.20
70593;DHT22;58294;42.988;20.338;2023-07-31T02:28:12;435.40;2355.20
70593;DHT22;58294;42.988;20.338;2023-07-31T02:30:38;435.40;2355.20
70593;DHT22;58294;42.988;20.338;2023-07-31T02:33:04;435.40;2355.20
70593;DHT22;58294;42.988;20.338;2023-07-31T02:35:30;435.40;2355.20
70593;DHT22;58294;42.988;20.338;2023-07-31T02:37:56;435.40;2355.20
70593;DHT22;58294;42.988;20.338;2023-07-31T02:40:22;435.40;2355.20
70593;DHT22;58294;42.988;20.338;2023-07-31T02:42:48;435.40;2355.20
70593;DHT22;58294;42.988;20.338;2023-07-31T02:45:14;435.50;2355.20
70593;DHT22;58294;42.988;20.338;2023-07-31T02:47:40;435.50;2355.20
70593;DHT22;58294;42.988;20.338;2023-07-31T02:50:06;435.50;2355.20
70593;DHT22;58294;42.988;20.338;2023-07-31T02:52:32;435.50;2355.20
70593;DHT22;58294;42.988;20.338;2023-07-31T02:54:58;435.50;2355.20
70593;DHT22;58294;42.988;20.338;2023-07-31T02:57:24;435.50;2355.20
70593;DHT22;58294;42.988;20.338;2023-07-31T02:59:50;435.40;2355.20
70593;DHT22;58294;42.988;20.338;2023-07-31T03:02:15;435.40;2355.20
70593;DHT22;58294;42.988;20.338;2023-07-31T03:04:41;435.40;2355.20
70593;DHT22;58294;42.988;20.338;2023-07-31T03:07:07;435.40;2355.20
70593;DHT22;58294;42.988;20.338;2023-07-31T03:09:32;435.30;2355.20
70593;DHT22;58294;42.988;20.338;2023-07-31T03:11:58;435.30;2355.20
70593;DHT22;58294;42.988;20.338;2023-07-31T03:14:24;435.20;2355.20
70593;DHT22;58294;42.988;20.338;2023-07-31T03:16:52;435.20;2355.20
70593;DHT22;58294;42.988;20.338;2023-07-31T03:19:18;435.20;2355.20
70593;DHT22;58294;42.988;20.338;2023-07-31T03:21:43;435.20;2355.20
70593;DHT22;58294;42.988;20.338;2023-07-31T03:24:09;435.20;2355.20
70593;DHT22;58294;42.988;20.338;2023-07-31T03:26:37;435.20;2355.20
70593;DHT22;58294;42.988;20.338;2023-07-31T03:29:03;435.20;2355.20
70593;DHT22;58294;42.988;20.338;2023-07-31T03:31:29;435.20;2355.20
70593;DHT22;58294;42.988;20.338;2023-07-31T03:33:55;435.20;2355.20
70593;DHT22;58294;42.988;20.338;2023-07-31T03:36:21;435.20;2355.20
70593;DHT22;58294;42.988;20.338;2023-07-31T03:38:46;435.30;2355.20
70593;DHT22;58294;42.988;20.338;2023-07-31T03:41:12;435.30;2355.20
70593;DHT22;58294;42.988;20.338;2023-07-31T03:43:38;435.40;2355.20
70593;DHT22;58294;42.988;20.338;2023-07-31T03:46:04;435.40;2355.20
70593;DHT22;58294;42.988;20.338;2023-07-31T03:48:29;435.40;2355.20
70593;DHT22;58294;42.988;20.338;2023-07-31T03:50:55;435.40;2355.20
70593;DHT22;58294;42.988;20.338;2023-07-31T03:53:21;435.40;2355.20
70593;DHT22;58294;42.988;20.338;2023-07-31T03:55:47;435.40;2355.20
70593;DHT22;58294;42.988;20.338;2023-07-31T03:58:13;435.40;2355.20
70593;DHT22;58294;42.988;20.338;2023-07-31T04:00:40;435.40;2355.20
70593;DHT22;58294;42.988;20.338;2023-07-31T04:03:06;435.40;2355.20
70593;DHT22;58294;42.988;20.338;2023-07-31T04:05:32;435.40;2355.20
70593;DHT22;58294;42.988;20.338;2023-07-31T04:07:58;435.40;2355.20
70593;DHT22;58294;42.988;20.338;2023-07-31T04:10:24;435.40;2355.20
70593;DHT22;58294;42.988;20.338;2023-07-31T04:12:50;435.40;2355.20
70593;DHT22;58294;42.988;20.338;2023-07-31T04:15:16;435.50;2355.20
70593;DHT22;58294;42.988;20.338;2023-07-31T04:17:42;435.50;2355.20
70593;DHT22;58294;42.988;20.338;2023-07-31T04:20:08;435.60;2355.20
70593;DHT22;58294;42.988;20.338;2023-07-31T04:22:34;435.70;2355.20
70593;DHT22;58294;42.988;20.338;2023-07-31T04:24:59;435.70;2355.20
70593;DHT22;58294;42.988;20.338;2023-07-31T04:27:25;435.70;2355.20
70593;DHT22;58294;42.988;20.338;2023-07-31T04:29:51;435.70;2355.20
70593;DHT22;58294;42.988;20.338;2023-07-31T04:32:17;435.80;2355.20
70593;DHT22;58294;42.988;20.338;2023-07-31T04:34:43;435.80;2355.20
70593;DHT22;58294;42.988;20.338;2023-07-31T04:37:09;435.80;2355.20
70593;DHT22;58294;42.988;20.338;2023-07-31T04:39:35;435.80;2355.20
70593;DHT22;58294;42.988;20.338;2023-07-31T04:42:00;435.80;2355.20
70593;DHT22;58294;42.988;20.338;2023-07-31T04:44:26;435.80;2355.20
70593;DHT22;58294;42.988;20.338;2023-07-31T04:46:52;435.80;2355.20
70593;DHT22;58294;42.988;20.338;2023-07-31T04:49:19;435.70;2355.20
70593;DHT22;58294;42.988;20.338;2023-07-31T04:51:45;435.70;2355.20
70593;DHT22;58294;42.988;20.338;2023-07-31T04:54:10;435.70;2355.20
70593;DHT22;58294;42.988;20.338;2023-07-31T04:56:38;435.70;2355.20
70593;DHT22;58294;42.988;20.338;2023-07-31T04:59:04;435.70;2355.20
70593;DHT22;58294;42.988;20.338;2023-07-31T05:01:30;435.80;2355.20
70593;DHT22;58294;42.988;20.338;2023-07-31T05:03:55;435.80;2355.20
70593;DHT22;58294;42.988;20.338;2023-07-31T05:06:21;435.90;2355.20
70593;DHT22;58294;42.988;20.338;2023-07-31T05:08:47;436.00;2355.20
70593;DHT22;58294;42.988;20.338;2023-07-31T05:11:13;436.00;2355.20
70593;DHT22;58294;42.988;20.338;2023-07-31T05:13:38;436.00;2355.20
70593;DHT22;58294;42.988;20.338;2023-07-31T05:16:04;436.10;2355.20
70593;DHT22;58294;42.988;20.338;2023-07-31T05:18:30;436.10;2355.20
70593;DHT22;58294;42.988;20.338;2023-07-31T05:20:56;460.80;2380.80
70593;DHT22;58294;42.988;20.338;2023-07-31T05:23:22;460.80;2380.80
70593;DHT22;58294;42.988;20.338;2023-07-31T05:25:47;460.80;2380.80
70593;DHT22;58294;42.988;20.338;2023-07-31T05:28:13;460.80;2380.80
70593;DHT22;58294;42.988;20.338;2023-07-31T05:30:39;460.80;2380.80
70593;DHT22;58294;42.988;20.338;2023-07-31T05:33:05;460.80;2380.80
70593;DHT22;58294;42.988;20.338;2023-07-31T05:35:30;460.80;2380.80
70593;DHT22;58294;42.988;20.338;2023-07-31T05:37:56;460.80;2380.80
70593;DHT22;58294;42.988;20.338;2023-07-31T05:40:22;460.80;2380.80
70593;DHT22;58294;42.988;20.338;2023-07-31T05:42:48;460.90;2380.80
70593;DHT22;58294;42.988;20.338;2023-07-31T05:45:14;460.90;2380.80
70593;DHT22;58294;42.988;20.338;2023-07-31T05:47:40;460.90;2380.80
70593;DHT22;58294;42.988;20.338;2023-07-31T05:50:06;461.00;2380.80
70593;DHT22;58294;42.988;20.338;2023-07-31T05:52:31;461.00;2380.80
70593;DHT22;58294;42.988;20.338;2023-07-31T05:54:57;461.00;2380.80
70593;DHT22;58294;42.988;20.338;2023-07-31T05:57:23;461.10;2380.80
70593;DHT22;58294;42.988;20.338;2023-07-31T05:59:49;461.10;2380.80
70593;DHT22;58294;42.988;20.338;2023-07-31T06:02:15;461.20;2380.80
70593;DHT22;58294;42.988;20.338;2023-07-31T06:04:40;461.20;2380.80
70593;DHT22;58294;42.988;20.338;2023-07-31T06:07:06;461.30;2380.80
70593;DHT22;58294;42.988;20.338;2023-07-31T06:09:32;461.30;2380.80
70593;DHT22;58294;42.988;20.338;2023-07-31T06:11:58;461.40;2380.80
70593;DHT22;58294;42.988;20.338;2023-07-31T06:14:24;461.50;2380.80
70593;DHT22;58294;42.988;20.338;2023-07-31T06:16:50;461.50;2380.80
70593;DHT22;58294;42.988;20.338;2023-07-31T06:19:15;461.50;2380.80
70593;DHT22;58294;42.988;20.338;2023-07-31T06:21:41;461.50;2380.80
70593;DHT22;58294;42.988;20.338;2023-07-31T06:24:10;461.50;2380.80
70593;DHT22;58294;42.988;20.338;2023-07-31T06:26:37;461.60;2380.80
70593;DHT22;58294;42.988;20.338;2023-07-31T06:29:03;461.60;2380.80
70593;DHT22;58294;42.988;20.338;2023-07-31T06:31:29;486.40;2380.80
70593;DHT22;58294;42.988;20.338;2023-07-31T06:33:55;486.50;2380.80
70593;DHT22;58294;42.988;20.338;2023-07-31T06:36:20;486.60;2380.80
70593;DHT22;58294;42.988;20.338;2023-07-31T06:38:46;486.70;2380.80
70593;DHT22;58294;42.988;20.338;2023-07-31T06:41:12;486.80;2380.80
70593;DHT22;58294;42.988;20.338;2023-07-31T06:43:38;487.10;2380.80
70593;DHT22;58294;42.988;20.338;2023-07-31T06:46:07;487.20;2380.80
70593;DHT22;58294;42.988;20.338;2023-07-31T06:48:34;512.10;2380.80
70593;DHT22;58294;42.988;20.338;2023-07-31T06:51:00;512.10;2380.80
70593;DHT22;58294;42.988;20.338;2023-07-31T06:53:26;512.20;2380.80
70593;DHT22;58294;42.988;20.338;2023-07-31T06:55:52;512.30;2380.80
70593;DHT22;58294;42.988;20.338;2023-07-31T06:58:18;512.40;2380.80
70593;DHT22;58294;42.988;20.338;2023-07-31T07:00:44;512.60;2380.80
70593;DHT22;58294;42.988;20.338;2023-07-31T07:03:09;512.70;2380.80
70593;DHT22;58294;42.988;20.338;2023-07-31T07:05:35;512.70;2380.80
70593;DHT22;58294;42.988;20.338;2023-07-31T07:08:01;512.80;2380.80
70593;DHT22;58294;42.988;20.338;2023-07-31T07:10:27;512.80;2380.80
70593;DHT22;58294;42.988;20.338;2023-07-31T07:12:53;512.90;2380.80
70593;DHT22;58294;42.988;20.338;2023-07-31T07:15:20;538.10;2406.40
70593;DHT22;58294;42.988;20.338;2023-07-31T07:17:46;538.10;2406.40
70593;DHT22;58294;42.988;20.338;2023-07-31T07:20:12;538.10;2406.40
70593;DHT22;58294;42.988;20.338;2023-07-31T07:22:38;538.10;2406.40
70593;DHT22;58294;42.988;20.338;2023-07-31T07:25:04;538.10;2406.40
70593;DHT22;58294;42.988;20.338;2023-07-31T07:27:30;538.10;2406.40
70593;DHT22;58294;42.988;20.338;2023-07-31T07:29:56;538.20;2406.40
70593;DHT22;58294;42.988;20.338;2023-07-31T07:32:22;538.40;2406.40
70593;DHT22;58294;42.988;20.338;2023-07-31T07:34:48;538.40;2406.40
70593;DHT22;58294;42.988;20.338;2023-07-31T07:37:14;538.50;2406.40
70593;DHT22;58294;42.988;20.338;2023-07-31T07:39:41;563.20;2432.00
70593;DHT22;58294;42.988;20.338;2023-07-31T07:42:07;538.50;2406.40
70593;DHT22;58294;42.988;20.338;2023-07-31T07:44:33;563.20;2432.00
70593;DHT22;58294;42.988;20.338;2023-07-31T07:46:59;538.40;2406.40
70593;DHT22;58294;42.988;20.338;2023-07-31T07:49:25;538.40;2406.40
70593;DHT22;58294;42.988;20.338;2023-07-31T07:51:50;538.50;2406.40
70593;DHT22;58294;42.988;20.338;2023-07-31T07:54:16;538.50;2406.40
70593;DHT22;58294;42.988;20.338;2023-07-31T07:56:42;538.40;2406.40
70593;DHT22;58294;42.988;20.338;2023-07-31T07:59:08;538.40;2406.40
70593;DHT22;58294;42.988;20.338;2023-07-31T08:01:34;538.40;2406.40
70593;DHT22;58294;42.988;20.338;2023-07-31T08:04:00;538.40;2406.40
70593;DHT22;58294;42.988;20.338;2023-07-31T08:06:26;538.20;2406.40
70593;DHT22;58294;42.988;20.338;2023-07-31T08:08:52;538.30;2406.40
70593;DHT22;58294;42.988;20.338;2023-07-31T08:11:17;538.20;2406.40
70593;DHT22;58294;42.988;20.338;2023-07-31T08:13:43;538.10;2406.40
70593;DHT22;58294;42.988;20.338;2023-07-31T08:16:09;538.20;2406.40
70593;DHT22;58294;42.988;20.338;2023-07-31T08:18:35;538.30;2406.40
70593;DHT22;58294;42.988;20.338;2023-07-31T08:21:05;538.50;2406.40
70593;DHT22;58294;42.988;20.338;2023-07-31T08:23:30;563.20;2432.00
70593;DHT22;58294;42.988;20.338;2023-07-31T08:25:56;538.50;2406.40
70593;DHT22;58294;42.988;20.338;2023-07-31T08:28:22;538.50;2406.40
70593;DHT22;58294;42.988;20.338;2023-07-31T08:30:48;563.20;2432.00
70593;DHT22;58294;42.988;20.338;2023-07-31T08:33:16;563.30;2432.00
70593;DHT22;58294;42.988;20.338;2023-07-31T08:35:41;563.60;2432.00
70593;DHT22;58294;42.988;20.338;2023-07-31T08:38:07;563.70;2432.00
70593;DHT22;58294;42.988;20.338;2023-07-31T08:40:37;563.70;2432.00
70593;DHT22;58294;42.988;20.338;2023-07-31T08:43:06;563.70;2432.00
70593;DHT22;58294;42.988;20.338;2023-07-31T08:45:32;563.90;2432.00
70593;DHT22;58294;42.988;20.338;2023-07-31T08:47:59;563.90;2432.00
70593;DHT22;58294;42.988;20.338;2023-07-31T08:50:25;563.90;2432.00
70593;DHT22;58294;42.988;20.338;2023-07-31T08:52:52;563.90;2432.00
70593;DHT22;58294;42.988;20.338;2023-07-31T08:55:18;563.90;2432.00
70593;DHT22;58294;42.988;20.338;2023-07-31T08:57:51;563.90;2432.00
70593;DHT22;58294;42.988;20.338;2023-07-31T09:00:19;563.70;2432.00
70593;DHT22;58294;42.988;20.338;2023-07-31T09:03:03;563.70;2432.00
70593;DHT22;58294;42.988;20.338;2023-07-31T09:05:33;563.70;2432.00
70593;DHT22;58294;42.988;20.338;2023-07-31T09:08:00;563.90;2432.00
70593;DHT22;58294;42.988;20.338;2023-07-31T09:10:28;563.90;2432.00
70593;DHT22;58294;42.988;20.338;2023-07-31T09:12:55;563.80;2432.00
70593;DHT22;58294;42.988;20.338;2023-07-31T09:15:22;563.70;2432.00
70593;DHT22;58294;42.988;20.338;2023-07-31T09:18:01;563.60;2432.00
70593;DHT22;58294;42.988;20.338;2023-07-31T09:20:27;563.50;2432.00
70593;DHT22;58294;42.988;20.338;2023-07-31T09:22:53;563.60;2432.00
70593;DHT22;58294;42.988;20.338;2023-07-31T09:25:24;563.70;2432.00
70593;DHT22;58294;42.988;20.338;2023-07-31T09:27:53;564.00;2432.00
70593;DHT22;58294;42.988;20.338;2023-07-31T09:30:20;588.80;2432.00
70593;DHT22;58294;42.988;20.338;2023-07-31T09:32:47;564.10;2432.00
70593;DHT22;58294;42.988;20.338;2023-07-31T09:38:11;588.90;2432.00
70593;DHT22;58294;42.988;20.338;2023-07-31T09:40:56;588.90;2432.00
70593;DHT22;58294;42.988;20.338;2023-07-31T09:43:24;589.00;2432.00
70593;DHT22;58294;42.988;20.338;2023-07-31T09:45:55;589.00;2432.00
70593;DHT22;58294;42.988;20.338;2023-07-31T09:48:23;589.00;2432.00
70593;DHT22;58294;42.988;20.338;2023-07-31T09:50:52;589.10;2432.00
70593;DHT22;58294;42.988;20.338;2023-07-31T09:53:18;589.30;2432.00
70593;DHT22;58294;42.988;20.338;2023-07-31T09:55:44;589.40;2432.00
70593;DHT22;58294;42.988;20.338;2023-07-31T09:58:12;589.50;2432.00
70593;DHT22;58294;42.988;20.338;2023-07-31T10:00:38;589.40;2432.00
70593;DHT22;58294;42.988;20.338;2023-07-31T10:03:06;589.30;2432.00
70593;DHT22;58294;42.988;20.338;2023-07-31T10:05:38;589.20;2432.00
70593;DHT22;58294;42.988;20.338;2023-07-31T10:08:06;589.20;2432.00
70593;DHT22;58294;42.988;20.338;2023-07-31T10:10:32;589.00;2432.00
70593;DHT22;58294;42.988;20.338;2023-07-31T10:13:01;589.00;2432.00
70593;DHT22;58294;42.988;20.338;2023-07-31T10:15:28;588.90;2432.00
70593;DHT22;58294;42.988;20.338;2023-07-31T10:17:55;588.80;2432.00
70593;DHT22;58294;42.988;20.338;2023-07-31T10:20:22;588.80;2432.00
70593;DHT22;58294;42.988;20.338;2023-07-31T10:22:48;588.80;2432.00
70593;DHT22;58294;42.988;20.338;2023-07-31T10:25:15;588.80;2432.00
70593;DHT22;58294;42.988;20.338;2023-07-31T10:27:42;588.80;2432.00
70593;DHT22;58294;42.988;20.338;2023-07-31T10:30:12;588.90;2432.00
70593;DHT22;58294;42.988;20.338;2023-07-31T10:32:41;589.00;2432.00
70593;DHT22;58294;42.988;20.338;2023-07-31T10:35:09;588.90;2432.00
70593;DHT22;58294;42.988;20.338;2023-07-31T10:37:40;589.00;2432.00
70593;DHT22;58294;42.988;20.338;2023-07-31T10:42:38;691.50;2150.40
70593;DHT22;58294;42.988;20.338;2023-07-31T10:45:10;742.70;2432.00
70593;DHT22;58294;42.988;20.338;2023-07-31T10:47:38;768.50;2432.00
70593;DHT22;58294;42.988;20.338;2023-07-31T10:50:20;794.10;2432.00
70593;DHT22;58294;42.988;20.338;2023-07-31T10:52:51;794.10;2432.00
70593;DHT22;58294;42.988;20.338;2023-07-31T10:55:38;794.10;2432.00
70593;DHT22;58294;42.988;20.338;2023-07-31T10:58:12;793.60;2432.00
70593;DHT22;58294;42.988;20.338;2023-07-31T11:00:43;768.90;2432.00
70593;DHT22;58294;42.988;20.338;2023-07-31T11:03:12;793.80;2432.00
70593;DHT22;58294;42.988;20.338;2023-07-31T11:08:23;819.40;2432.00
70593;DHT22;58294;42.988;20.338;2023-07-31T11:13:30;845.00;2432.00
70593;DHT22;58294;42.988;20.338;2023-07-31T11:15:56;820.10;2432.00
70593;DHT22;58294;42.988;20.338;2023-07-31T11:18:22;819.70;2150.40
70593;DHT22;58294;42.988;20.338;2023-07-31T11:20:48;768.20;2432.00
70593;DHT22;58294;42.988;20.338;2023-07-31T11:23:16;717.60;2432.00
70593;DHT22;58294;42.988;20.338;2023-07-31T11:25:42;691.90;2432.00
70593;DHT22;58294;42.988;20.338;2023-07-31T11:28:14;691.90;2432.00
70593;DHT22;58294;42.988;20.338;2023-07-31T11:30:42;691.20;2432.00
70593;DHT22;58294;42.988;20.338;2023-07-31T11:33:09;666.10;2432.00
70593;DHT22;58294;42.988;20.338;2023-07-31T11:35:47;665.90;2432.00
70593;DHT22;58294;42.988;20.338;2023-07-31T11:38:28;665.70;2432.00
70593;DHT22;58294;42.988;20.338;2023-07-31T11:40:57;665.60;2432.00
70593;DHT22;58294;42.988;20.338;2023-07-31T11:43:23;665.90;2432.00
70593;DHT22;58294;42.988;20.338;2023-07-31T11:45:57;666.50;2432.00
70593;DHT22;58294;42.988;20.338;2023-07-31T11:48:31;666.40;2432.00
70593;DHT22;58294;42.988;20.338;2023-07-31T11:51:01;665.80;2432.00
70593;DHT22;58294;42.988;20.338;2023-07-31T11:53:43;742.90;2432.00
70593;DHT22;58294;42.988;20.338;2023-07-31T11:56:12;742.70;2432.00
70593;DHT22;58294;42.988;20.338;2023-07-31T11:58:40;768.00;2432.00
70593;DHT22;58294;42.988;20.338;2023-07-31T12:01:06;793.90;2432.00
70593;DHT22;58294;42.988;20.338;2023-07-31T12:03:33;768.50;2432.00
70593;DHT22;58294;42.988;20.338;2023-07-31T12:05:59;768.20;2432.00
70593;DHT22;58294;42.988;20.338;2023-07-31T12:08:25;743.20;2432.00
70593;DHT22;58294;42.988;20.338;2023-07-31T12:10:52;768.20;2432.00
70593;DHT22;58294;42.988;20.338;2023-07-31T12:13:23;768.30;1894.40
70593;DHT22;58294;42.988;20.338;2023-07-31T12:15:54;794.00;2432.00
70593;DHT22;58294;42.988;20.338;2023-07-31T12:18:22;819.20;2432.00
70593;DHT22;58294;42.988;20.338;2023-07-31T12:23:21;819.70;2432.00
70593;DHT22;58294;42.988;20.338;2023-07-31T12:28:46;870.50;2432.00
70593;DHT22;58294;42.988;20.338;2023-07-31T12:31:19;870.40;1587.20
70593;DHT22;58294;42.988;20.338;2023-07-31T12:33:47;844.90;2099.20
70593;DHT22;58294;42.988;20.338;2023-07-31T12:36:15;844.90;2432.00
70593;DHT22;58294;42.988;20.338;2023-07-31T12:43:35;871.30;2406.40
70593;DHT22;58294;42.988;20.338;2023-07-31T12:46:01;896.40;1075.20
70593;DHT22;58294;42.988;20.338;2023-07-31T12:53:20;870.60;1715.20
70593;DHT22;58294;42.988;20.338;2023-07-31T12:55:46;845.30;2432.00
70593;DHT22;58294;42.988;20.338;2023-07-31T12:58:12;819.20;2099.20
70593;DHT22;58294;42.988;20.338;2023-07-31T13:00:38;793.70;1843.20
70593;DHT22;58294;42.988;20.338;2023-07-31T13:03:04;768.60;2201.60
70593;DHT22;58294;42.988;20.338;2023-07-31T13:05:30;768.20;1894.40
70593;DHT22;58294;42.988;20.338;2023-07-31T13:07:56;743.20;2432.00
70593;DHT22;58294;42.988;20.338;2023-07-31T13:10:22;717.60;2406.40
70593;DHT22;58294;42.988;20.338;2023-07-31T13:12:49;717.00;2048.00
70593;DHT22;58294;42.988;20.338;2023-07-31T13:15:14;691.50;2099.20
70593;DHT22;58294;42.988;20.338;2023-07-31T13:17:40;691.80;2432.00
70593;DHT22;58294;42.988;20.338;2023-07-31T13:20:07;691.70;2432.00
70593;DHT22;58294;42.988;20.338;2023-07-31T13:22:33;666.30;2252.80
70593;DHT22;58294;42.988;20.338;2023-07-31T13:24:58;666.50;2432.00
70593;DHT22;58294;42.988;20.338;2023-07-31T13:27:24;666.40;2432.00
70593;DHT22;58294;42.988;20.338;2023-07-31T13:29:53;666.50;2432.00
70593;DHT22;58294;42.988;20.338;2023-07-31T13:32:20;666.30;2432.00
70593;DHT22;58294;42.988;20.338;2023-07-31T13:34:47;666.00;2432.00
70593;DHT22;58294;42.988;20.338;2023-07-31T13:37:13;640.60;2432.00
70593;DHT22;58294;42.988;20.338;2023-07-31T13:39:39;640.20;2432.00
70593;DHT22;58294;42.988;20.338;2023-07-31T13:42:07;640.20;2432.00
70593;DHT22;58294;42.988;20.338;2023-07-31T13:44:39;640.20;2432.00
70593;DHT22;58294;42.988;20.338;2023-07-31T13:47:06;640.20;2432.00
70593;DHT22;58294;42.988;20.338;2023-07-31T13:49:32;640.00;2432.00
70593;DHT22;58294;42.988;20.338;2023-07-31T13:51:58;640.20;2432.00
70593;DHT22;58294;42.988;20.338;2023-07-31T13:54:24;640.30;2432.00
70593;DHT22;58294;42.988;20.338;2023-07-31T13:56:51;640.50;2432.00
70593;DHT22;58294;42.988;20.338;2023-07-31T13:59:17;640.40;2432.00
70593;DHT22;58294;42.988;20.338;2023-07-31T14:01:44;640.50;2432.00
70593;DHT22;58294;42.988;20.338;2023-07-31T14:04:10;640.50;2432.00
70593;DHT22;58294;42.988;20.338;2023-07-31T14:06:36;640.50;2432.00
70593;DHT22;58294;42.988;20.338;2023-07-31T14:09:02;640.30;2432.00
70593;DHT22;58294;42.988;20.338;2023-07-31T14:11:30;640.20;2432.00
70593;DHT22;58294;42.988;20.338;2023-07-31T14:13:56;640.30;2432.00
70593;DHT22;58294;42.988;20.338;2023-07-31T14:16:22;640.30;2432.00
70593;DHT22;58294;42.988;20.338;2023-07-31T14:18:48;640.20;1868.80
70593;DHT22;58294;42.988;20.338;2023-07-31T14:21:14;640.20;1817.60
70593;DHT22;58294;42.988;20.338;2023-07-31T14:23:40;640.30;2432.00
70593;DHT22;58294;42.988;20.338;2023-07-31T14:26:06;640.30;2380.80
70593;DHT22;58294;42.988;20.338;2023-07-31T14:28:32;640.50;2432.00
70593;DHT22;58294;42.988;20.338;2023-07-31T14:30:58;640.50;2432.00
70593;DHT22;58294;42.988;20.338;2023-07-31T14:33:24;640.40;2432.00
70593;DHT22;58294;42.988;20.338;2023-07-31T14:35:49;640.50;2432.00
70593;DHT22;58294;42.988;20.338;2023-07-31T14:38:15;640.50;2432.00
70593;DHT22;58294;42.988;20.338;2023-07-31T14:40:41;640.40;2432.00
70593;DHT22;58294;42.988;20.338;2023-07-31T14:43:07;640.10;2432.00
70593;DHT22;58294;42.988;20.338;2023-07-31T14:45:33;640.20;2432.00
70593;DHT22;58294;42.988;20.338;2023-07-31T14:47:59;640.30;2432.00
70593;DHT22;58294;42.988;20.338;2023-07-31T14:50:25;640.30;2432.00
70593;DHT22;58294;42.988;20.338;2023-07-31T14:52:51;640.20;2432.00
70593;DHT22;58294;42.988;20.338;2023-07-31T14:55:18;640.30;2432.00
70593;DHT22;58294;42.988;20.338;2023-07-31T14:57:44;640.30;2432.00
70593;DHT22;58294;42.988;20.338;2023-07-31T15:00:10;640.40;2432.00
70593;DHT22;58294;42.988;20.338;2023-07-31T15:02:37;640.40;2432.00
70593;DHT22;58294;42.988;20.338;2023-07-31T15:05:03;640.30;2432.00
70593;DHT22;58294;42.988;20.338;2023-07-31T15:07:29;640.30;2432.00